createdAt,value
2022-12-25T00:00:40.891Z,5.70
2022-12-25T00:01:42.851Z,5.80
2022-12-25T00:02:46.503Z,6.00
2022-12-25T00:03:48.908Z,6.20
2022-12-25T00:04:50.754Z,6.20
2022-12-25T00:05:52.493Z,6.60
2022-12-25T00:06:54.347Z,6.60
2022-12-25T00:07:56.124Z,6.60
2022-12-25T00:08:57.915Z,7.00
2022-12-25T00:10:02.655Z,6.90
2022-12-25T00:11:14.649Z,6.60
2022-12-25T00:12:16.575Z,7.00
2022-12-25T00:13:18.354Z,7.00
2022-12-25T00:14:21.566Z,7.40
2022-12-25T00:15:23.571Z,7.40
2022-12-25T00:16:27.049Z,7.20
2022-12-25T00:17:28.905Z,7.30
2022-12-25T00:18:37.639Z,7.60
2022-12-25T00:20:08.714Z,7.60
2022-12-25T00:21:11.318Z,8.10
2022-12-25T00:22:13.467Z,8.10
2022-12-25T00:23:15.214Z,7.90
2022-12-25T00:24:19.349Z,7.90
2022-12-25T00:25:23.758Z,8.20
2022-12-25T00:26:27.947Z,8.10
2022-12-25T00:27:33.269Z,8.10
2022-12-25T00:28:37.514Z,8.30
2022-12-25T00:29:39.616Z,8.20
2022-12-25T00:30:42.400Z,8.40
2022-12-25T00:31:44.588Z,8.30
2022-12-25T00:32:47.056Z,8.70
2022-12-25T00:33:50.373Z,8.50
2022-12-25T00:34:52.486Z,8.70
2022-12-25T00:35:59.660Z,9.20
2022-12-25T00:37:01.501Z,9.30
2022-12-25T00:38:03.968Z,9.40
2022-12-25T00:39:08.997Z,9.20
2022-12-25T00:40:11.085Z,9.40
2022-12-25T00:41:16.399Z,9.40
2022-12-25T00:42:20.879Z,9.40
2022-12-25T00:43:23.125Z,9.60
2022-12-25T00:44:27.013Z,9.60
2022-12-25T00:45:29.214Z,9.60
2022-12-25T00:46:31.133Z,9.60
2022-12-25T00:47:33.159Z,9.60
2022-12-25T00:48:35.958Z,9.40
2022-12-25T00:49:37.961Z,9.60
2022-12-25T00:50:39.786Z,9.60
2022-12-25T00:51:42.410Z,9.80
2022-12-25T00:52:44.363Z,9.80
2022-12-25T00:53:46.811Z,9.80
2022-12-25T00:54:50.848Z,9.70
2022-12-25T00:55:55.177Z,9.60
2022-12-25T00:56:56.917Z,9.90
2022-12-25T00:57:59.542Z,9.50
2022-12-25T00:59:01.514Z,9.70
2022-12-25T01:00:04.939Z,9.60
2022-12-25T01:01:06.976Z,9.80
2022-12-25T01:02:24.258Z,9.20
2022-12-25T01:03:26.970Z,9.10
2022-12-25T01:04:30.381Z,9.00
2022-12-25T01:05:32.257Z,9.10
2022-12-25T01:06:34.032Z,8.80
2022-12-25T01:07:35.831Z,9.10
2022-12-25T01:08:39.436Z,8.80
2022-12-25T01:10:00.894Z,8.60
2022-12-25T01:11:08.615Z,8.80
2022-12-25T01:12:11.978Z,8.80
2022-12-25T01:13:13.792Z,8.80
2022-12-25T01:14:16.076Z,8.30
2022-12-25T01:15:17.942Z,8.20
2022-12-25T01:16:21.535Z,8.10
2022-12-25T01:17:23.452Z,8.10
2022-12-25T01:18:25.631Z,8.30
2022-12-25T01:19:27.452Z,8.30
2022-12-25T01:20:29.267Z,8.40
2022-12-25T01:21:35.238Z,8.40
2022-12-25T01:22:50.536Z,8.90
2022-12-25T01:23:53.257Z,7.90
2022-12-25T01:24:55.108Z,7.80
2022-12-25T01:25:56.913Z,8.00
2022-12-25T01:26:58.654Z,8.00
2022-12-25T01:28:01.682Z,8.00
2022-12-25T01:29:03.617Z,8.10
2022-12-25T01:30:06.748Z,8.70
2022-12-25T01:31:14.489Z,8.20
2022-12-25T01:32:18.112Z,8.40
2022-12-25T01:33:19.870Z,8.40
2022-12-25T01:34:21.921Z,8.30
2022-12-25T01:35:25.283Z,8.40
2022-12-25T01:36:27.516Z,8.40
2022-12-25T01:37:29.327Z,8.40
2022-12-25T01:38:31.176Z,8.40
2022-12-25T01:39:34.785Z,8.30
2022-12-25T01:40:36.949Z,8.30
2022-12-25T01:41:39.238Z,8.30
2022-12-25T01:42:41.159Z,8.60
2022-12-25T01:44:19.172Z,8.70
2022-12-25T01:45:34.016Z,8.60
2022-12-25T01:46:36.775Z,8.70
2022-12-25T01:47:40.325Z,8.50
2022-12-25T01:48:43.041Z,8.60
2022-12-25T01:49:47.820Z,8.70
2022-12-25T01:50:56.342Z,8.80
2022-12-25T01:52:05.190Z,8.90
2022-12-25T01:53:07.756Z,8.90
2022-12-25T01:54:14.315Z,9.00
2022-12-25T01:55:16.577Z,9.10
2022-12-25T01:56:21.027Z,8.90
2022-12-25T01:57:27.139Z,8.70
2022-12-25T01:58:29.730Z,8.90
2022-12-25T01:59:32.159Z,9.00
2022-12-25T02:00:34.334Z,9.20
2022-12-25T02:01:36.434Z,9.50
2022-12-25T02:02:39.959Z,9.50
2022-12-25T02:03:42.903Z,9.70
2022-12-25T02:04:58.347Z,9.40
2022-12-25T02:06:01.295Z,9.40
2022-12-25T02:07:04.526Z,9.20
2022-12-25T02:08:10.898Z,9.30
2022-12-25T02:09:14.826Z,9.50
2022-12-25T02:10:17.374Z,9.40
2022-12-25T02:11:38.011Z,9.60
2022-12-25T02:12:42.017Z,9.90
2022-12-25T02:13:44.015Z,9.60
2022-12-25T02:14:48.201Z,9.60
2022-12-25T02:18:19.265Z,10.10
2022-12-25T02:19:48.398Z,10.10
2022-12-25T02:21:31.363Z,10.50
2022-12-25T02:23:03.758Z,10.50
2022-12-25T02:24:33.201Z,10.50
2022-12-25T02:25:58.590Z,10.50
2022-12-25T02:27:07.169Z,10.50
2022-12-25T02:28:08.870Z,10.50
2022-12-25T02:29:36.519Z,10.40
2022-12-25T02:30:46.382Z,10.50
2022-12-25T02:32:22.809Z,11.00
2022-12-25T02:33:49.883Z,10.90
2022-12-25T02:35:12.019Z,10.50
2022-12-25T02:36:20.674Z,10.50
2022-12-25T02:37:44.136Z,10.50
2022-12-25T02:39:12.266Z,10.60
2022-12-25T02:40:21.133Z,10.50
2022-12-25T02:41:23.075Z,10.50
2022-12-25T02:43:01.486Z,10.50
2022-12-25T02:44:28.928Z,10.80
2022-12-25T02:45:53.309Z,10.50
2022-12-25T02:47:14.867Z,10.50
2022-12-25T02:48:37.737Z,10.50
2022-12-25T02:50:00.513Z,10.70
2022-12-25T02:51:27.368Z,10.70
2022-12-25T02:52:50.202Z,10.60
2022-12-25T02:54:13.100Z,10.90
2022-12-25T02:55:37.663Z,10.90
2022-12-25T02:57:00.813Z,10.80
2022-12-25T02:58:27.518Z,10.60
2022-12-25T02:59:51.021Z,10.80
2022-12-25T03:01:17.419Z,10.70
2022-12-25T03:02:39.766Z,11.10
2022-12-25T03:04:07.641Z,10.80
2022-12-25T03:05:32.691Z,10.80
2022-12-25T03:06:43.237Z,11.00
2022-12-25T03:07:47.214Z,11.00
2022-12-25T03:08:54.093Z,11.30
2022-12-25T03:10:28.055Z,11.20
2022-12-25T03:11:32.738Z,11.30
2022-12-25T03:12:54.021Z,11.20
2022-12-25T03:14:23.133Z,11.20
2022-12-25T03:15:44.700Z,11.30
2022-12-25T03:16:50.619Z,11.40
2022-12-25T03:17:56.852Z,11.40
2022-12-25T03:19:57.428Z,11.70
2022-12-25T03:21:18.604Z,11.90
2022-12-25T03:22:50.511Z,11.50
2022-12-25T03:24:21.913Z,11.80
2022-12-25T03:25:42.896Z,11.70
2022-12-25T03:26:57.609Z,11.80
2022-12-25T03:28:00.445Z,11.90
2022-12-25T03:29:02.331Z,11.70
2022-12-25T03:30:23.249Z,11.80
2022-12-25T03:31:45.593Z,11.90
2022-12-25T03:33:29.855Z,12.20
2022-12-25T03:35:07.386Z,12.60
2022-12-25T03:36:25.390Z,12.80
2022-12-25T03:37:44.958Z,12.70
2022-12-25T03:39:26.817Z,12.60
2022-12-25T03:41:00.589Z,12.60
2022-12-25T03:42:34.040Z,12.60
2022-12-25T03:44:08.278Z,12.50
2022-12-25T03:45:37.111Z,12.90
2022-12-25T03:47:12.115Z,13.00
2022-12-25T03:48:34.675Z,13.10
2022-12-25T03:50:05.456Z,13.00
2022-12-25T03:51:31.911Z,13.00
2022-12-25T03:52:54.035Z,13.10
2022-12-25T03:54:20.192Z,13.30
2022-12-25T03:55:59.363Z,13.60
2022-12-25T03:57:20.135Z,13.60
2022-12-25T03:58:43.616Z,13.50
2022-12-25T04:00:04.160Z,13.30
2022-12-25T04:01:24.849Z,13.30
2022-12-25T04:02:45.130Z,13.20
2022-12-25T04:04:05.506Z,13.20
2022-12-25T04:05:28.616Z,13.50
2022-12-25T04:06:49.011Z,13.70
2022-12-25T04:08:12.819Z,13.40
2022-12-25T04:09:33.242Z,13.30
2022-12-25T04:10:53.923Z,13.00
2022-12-25T04:12:14.367Z,13.00
2022-12-25T04:13:35.169Z,13.10
2022-12-25T04:14:56.794Z,13.50
2022-12-25T04:16:17.259Z,14.00
2022-12-25T04:17:38.264Z,13.90
2022-12-25T04:18:59.452Z,13.70
2022-12-25T04:20:19.632Z,13.60
2022-12-25T04:21:40.110Z,14.00
2022-12-25T04:23:10.144Z,14.00
2022-12-25T04:24:30.940Z,14.10
2022-12-25T04:25:51.510Z,13.90
2022-12-25T04:27:11.945Z,13.60
2022-12-25T04:28:32.402Z,13.60
2022-12-25T04:29:52.930Z,13.50
2022-12-25T04:31:13.510Z,13.40
2022-12-25T04:32:34.167Z,13.70
2022-12-25T04:33:54.513Z,13.70
2022-12-25T04:35:14.836Z,13.60
2022-12-25T04:36:16.817Z,13.40
2022-12-25T04:37:18.918Z,13.40
2022-12-25T04:38:21.159Z,13.40
2022-12-25T04:39:22.968Z,13.30
2022-12-25T04:40:25.062Z,13.30
2022-12-25T04:41:26.805Z,13.40
2022-12-25T04:42:28.632Z,13.20
2022-12-25T04:43:30.622Z,13.00
2022-12-25T04:44:32.503Z,13.20
2022-12-25T04:45:34.332Z,13.20
2022-12-25T04:46:36.165Z,12.90
2022-12-25T04:47:38.132Z,13.00
2022-12-25T04:48:42.154Z,13.00
2022-12-25T04:49:46.095Z,12.90
2022-12-25T04:50:47.960Z,12.80
2022-12-25T04:51:49.722Z,13.30
2022-12-25T04:52:51.422Z,12.60
2022-12-25T04:53:54.332Z,12.70
2022-12-25T04:54:56.053Z,12.30
2022-12-25T04:56:01.886Z,12.20
2022-12-25T04:57:03.842Z,11.90
2022-12-25T04:58:08.497Z,11.70
2022-12-25T04:59:11.568Z,11.70
2022-12-25T05:00:13.642Z,11.70
2022-12-25T05:01:16.912Z,11.50
2022-12-25T05:02:21.575Z,11.50
2022-12-25T05:03:25.149Z,11.00
2022-12-25T05:04:26.938Z,11.00
2022-12-25T05:05:29.330Z,10.80
2022-12-25T05:06:31.103Z,10.60
2022-12-25T05:07:33.362Z,11.70
2022-12-25T05:08:36.408Z,10.90
2022-12-25T05:09:41.829Z,11.20
2022-12-25T05:10:43.618Z,10.50
2022-12-25T05:11:46.044Z,10.50
2022-12-25T05:12:47.760Z,10.50
2022-12-25T05:13:49.985Z,10.50
2022-12-25T05:14:51.790Z,10.50
2022-12-25T05:15:53.802Z,10.50
2022-12-25T05:16:55.536Z,10.50
2022-12-25T05:17:57.247Z,10.50
2022-12-25T05:18:59.311Z,9.90
2022-12-25T05:20:01.180Z,10.50
2022-12-25T05:21:04.091Z,10.00
2022-12-25T05:22:05.749Z,10.30
2022-12-25T05:23:15.342Z,10.30
2022-12-25T05:24:20.275Z,10.50
2022-12-25T05:25:22.047Z,10.00
2022-12-25T05:26:25.787Z,10.10
2022-12-25T05:27:27.539Z,9.90
2022-12-25T05:28:29.509Z,9.80
2022-12-25T05:29:32.856Z,9.70
2022-12-25T05:30:35.424Z,9.90
2022-12-25T05:31:37.176Z,9.90
2022-12-25T05:32:39.034Z,10.00
2022-12-25T05:33:40.781Z,10.30
2022-12-25T05:34:42.442Z,10.00
2022-12-25T05:35:44.121Z,9.80
2022-12-25T05:36:46.048Z,10.00
2022-12-25T05:37:48.095Z,10.10
2022-12-25T05:38:50.942Z,10.00
2022-12-25T05:39:52.683Z,9.80
2022-12-25T05:40:54.363Z,9.80
2022-12-25T05:41:56.377Z,9.60
2022-12-25T05:42:58.079Z,9.50
2022-12-25T05:43:59.893Z,9.40
2022-12-25T05:45:01.692Z,9.30
2022-12-25T05:46:08.090Z,9.40
2022-12-25T05:47:11.997Z,9.40
2022-12-25T05:48:13.743Z,9.40
2022-12-25T05:49:15.935Z,9.40
2022-12-25T05:50:17.784Z,9.50
2022-12-25T05:51:19.552Z,9.60
2022-12-25T05:52:21.212Z,9.00
2022-12-25T05:53:23.095Z,8.90
2022-12-25T05:54:25.158Z,8.90
2022-12-25T05:55:27.041Z,8.60
2022-12-25T05:56:28.887Z,8.40
2022-12-25T05:57:32.235Z,8.20
2022-12-25T05:58:35.592Z,7.90
2022-12-25T05:59:37.492Z,7.80
2022-12-25T06:00:40.148Z,7.80
2022-12-25T06:01:42.076Z,8.00
2022-12-25T06:02:44.028Z,7.90
2022-12-25T06:03:45.945Z,7.90
2022-12-25T06:04:47.732Z,7.80
2022-12-25T06:05:49.688Z,8.00
2022-12-25T06:06:51.541Z,8.00
2022-12-25T06:07:53.274Z,8.00
2022-12-25T06:08:55.681Z,7.70
2022-12-25T06:09:57.497Z,7.60
2022-12-25T06:10:59.123Z,7.60
2022-12-25T06:12:00.825Z,7.60
2022-12-25T06:13:03.869Z,7.50
2022-12-25T06:14:06.191Z,7.50
2022-12-25T06:15:08.674Z,7.30
2022-12-25T06:16:12.237Z,7.00
2022-12-25T06:17:15.460Z,6.80
2022-12-25T06:18:17.271Z,7.20
2022-12-25T06:19:20.179Z,7.00
2022-12-25T06:20:22.321Z,7.10
2022-12-25T06:21:24.038Z,7.10
2022-12-25T06:23:11.759Z,7.20
2022-12-25T06:24:21.070Z,7.30
2022-12-25T06:25:23.942Z,7.10
2022-12-25T06:38:02.485Z,6.80
2022-12-25T06:39:08.207Z,6.80
2022-12-25T06:40:26.880Z,6.80
2022-12-25T06:41:30.752Z,7.30
2022-12-25T06:42:32.925Z,7.40
2022-12-25T06:43:37.743Z,7.60
2022-12-25T06:44:40.243Z,7.60
2022-12-25T06:45:42.072Z,7.60
2022-12-25T06:46:43.956Z,7.60
2022-12-25T06:47:45.678Z,7.20
2022-12-25T06:48:50.913Z,7.30
2022-12-25T06:49:52.583Z,7.60
2022-12-25T06:50:54.339Z,7.80
2022-12-25T06:51:56.216Z,7.70
2022-12-25T06:52:57.974Z,7.70
2022-12-25T06:54:03.859Z,7.70
2022-12-25T06:55:06.318Z,7.30
2022-12-25T06:56:17.471Z,6.90
2022-12-25T06:57:20.257Z,7.00
2022-12-25T06:58:22.663Z,6.90
2022-12-25T06:59:24.407Z,6.90
2022-12-25T07:00:26.179Z,6.80
2022-12-25T07:01:35.254Z,6.80
2022-12-25T07:02:38.629Z,6.80
2022-12-25T07:03:41.376Z,6.80
2022-12-25T07:04:44.883Z,6.80
2022-12-25T07:05:47.470Z,6.90
2022-12-25T07:06:49.300Z,6.90
2022-12-25T07:07:50.968Z,7.10
2022-12-25T07:08:53.022Z,7.00
2022-12-25T07:09:54.747Z,7.00
2022-12-25T07:10:56.422Z,6.90
2022-12-25T07:12:15.127Z,6.90
2022-12-25T07:13:17.226Z,6.80
2022-12-25T07:14:24.643Z,6.90
2022-12-25T07:15:26.821Z,6.90
2022-12-25T07:16:28.618Z,6.90
2022-12-25T07:17:30.354Z,6.90
2022-12-25T07:18:32.696Z,6.90
2022-12-25T07:19:39.675Z,6.90
2022-12-25T07:20:45.015Z,6.90
2022-12-25T07:21:48.672Z,6.70
2022-12-25T07:22:51.118Z,6.80
2022-12-25T07:23:53.024Z,6.70
2022-12-25T07:24:54.753Z,6.80
2022-12-25T07:25:58.497Z,6.50
2022-12-25T07:27:02.788Z,6.40
2022-12-25T07:28:04.663Z,6.40
2022-12-25T07:29:07.595Z,6.40
2022-12-25T07:30:10.055Z,6.40
2022-12-25T07:31:17.333Z,6.40
2022-12-25T07:32:20.297Z,6.50
2022-12-25T07:33:22.289Z,6.50
2022-12-25T07:34:24.091Z,6.50
2022-12-25T07:35:25.820Z,6.70
2022-12-25T07:36:28.308Z,6.60
2022-12-25T07:37:30.026Z,6.60
2022-12-25T07:38:32.756Z,6.70
2022-12-25T07:39:35.507Z,6.70
2022-12-25T07:40:38.454Z,6.90
2022-12-25T07:41:40.403Z,6.60
2022-12-25T07:42:42.106Z,6.60
2022-12-25T07:43:44.017Z,6.30
2022-12-25T07:44:46.341Z,6.40
2022-12-25T07:45:48.216Z,6.50
2022-12-25T07:46:49.960Z,6.70
2022-12-25T07:47:54.975Z,6.80
2022-12-25T07:48:56.854Z,6.90
2022-12-25T07:49:58.636Z,6.90
2022-12-25T07:51:03.619Z,6.90
2022-12-25T07:52:05.503Z,7.10
2022-12-25T07:53:08.391Z,6.90
2022-12-25T07:54:12.200Z,7.10
2022-12-25T07:55:14.008Z,7.10
2022-12-25T07:56:18.216Z,7.10
2022-12-25T07:57:19.900Z,6.90
2022-12-25T07:58:23.606Z,7.20
2022-12-25T07:59:25.626Z,6.90
2022-12-25T08:00:30.100Z,6.90
2022-12-25T08:01:32.168Z,6.60
2022-12-25T08:02:34.628Z,6.80
2022-12-25T08:03:37.182Z,6.80
2022-12-25T08:04:39.414Z,6.80
2022-12-25T08:05:41.550Z,6.70
2022-12-25T08:06:43.444Z,7.20
2022-12-25T08:07:45.117Z,7.50
2022-12-25T08:08:47.015Z,7.80
2022-12-25T08:09:51.074Z,7.80
2022-12-25T08:10:52.788Z,7.90
2022-12-25T08:11:54.521Z,7.90
2022-12-25T08:12:57.502Z,7.90
2022-12-25T08:13:59.412Z,7.80
2022-12-25T08:15:01.098Z,7.80
2022-12-25T08:16:05.383Z,7.70
2022-12-25T08:17:08.033Z,7.50
2022-12-25T08:18:10.044Z,7.50
2022-12-25T08:19:12.039Z,7.80
2022-12-25T08:20:13.938Z,7.70
2022-12-25T08:21:16.409Z,7.70
2022-12-25T08:22:18.146Z,7.60
2022-12-25T08:23:22.561Z,7.50
2022-12-25T08:24:24.345Z,7.50
2022-12-25T08:25:27.542Z,7.50
2022-12-25T08:26:29.433Z,7.30
2022-12-25T08:27:31.166Z,7.40
2022-12-25T08:28:34.701Z,7.30
2022-12-25T08:29:36.565Z,7.30
2022-12-25T08:30:39.635Z,7.20
2022-12-25T08:31:46.902Z,7.00
2022-12-25T08:32:49.267Z,6.90
2022-12-25T08:33:52.789Z,7.00
2022-12-25T08:34:54.698Z,6.90
2022-12-25T08:36:02.271Z,7.00
2022-12-25T08:37:04.010Z,7.00
2022-12-25T08:38:05.674Z,7.00
2022-12-25T08:39:08.670Z,7.10
2022-12-25T08:40:11.182Z,7.60
2022-12-25T08:41:13.635Z,7.50
2022-12-25T08:42:15.397Z,7.00
2022-12-25T08:43:17.084Z,7.00
2022-12-25T08:44:20.389Z,7.20
2022-12-25T08:45:23.542Z,7.00
2022-12-25T08:46:25.297Z,7.00
2022-12-25T08:47:27.096Z,7.00
2022-12-25T08:48:28.969Z,7.00
2022-12-25T08:49:30.863Z,7.00
2022-12-25T08:50:32.793Z,7.00
2022-12-25T08:51:34.840Z,7.00
2022-12-25T08:52:36.661Z,7.00
2022-12-25T08:53:38.407Z,6.90
2022-12-25T08:54:40.109Z,7.00
2022-12-25T08:55:42.040Z,7.00
2022-12-25T08:56:43.722Z,6.70
2022-12-25T08:57:45.540Z,7.00
2022-12-25T08:58:47.951Z,7.00
2022-12-25T08:59:49.973Z,7.00
2022-12-25T09:00:51.662Z,7.00
2022-12-25T09:01:53.433Z,7.00
2022-12-25T09:02:55.494Z,6.90
2022-12-25T09:03:57.658Z,6.90
2022-12-25T09:04:59.506Z,6.90
2022-12-25T09:06:12.508Z,7.00
2022-12-25T09:07:14.241Z,6.90
2022-12-25T09:08:15.914Z,7.00
2022-12-25T09:09:17.719Z,6.90
2022-12-25T09:10:19.477Z,7.10
2022-12-25T09:11:22.404Z,6.90
2022-12-25T09:12:24.127Z,7.20
2022-12-25T09:13:26.082Z,6.90
2022-12-25T09:14:28.062Z,7.10
2022-12-25T09:15:30.206Z,7.30
2022-12-25T09:16:32.044Z,7.50
2022-12-25T09:17:34.109Z,7.40
2022-12-25T09:18:36.390Z,7.40
2022-12-25T09:19:38.157Z,7.10
2022-12-25T09:20:40.000Z,7.00
2022-12-25T09:21:41.614Z,7.20
2022-12-25T09:22:43.546Z,7.20
2022-12-25T09:23:45.651Z,7.20
2022-12-25T09:24:47.327Z,6.90
2022-12-25T09:25:48.966Z,6.90
2022-12-25T09:26:51.589Z,6.90
2022-12-25T09:27:53.545Z,7.40
2022-12-25T09:28:55.290Z,7.00
2022-12-25T09:29:56.896Z,6.90
2022-12-25T09:30:59.564Z,7.20
2022-12-25T09:32:01.296Z,7.30
2022-12-25T09:33:03.338Z,7.30
2022-12-25T09:34:05.216Z,7.20
2022-12-25T09:35:08.513Z,7.00
2022-12-25T09:36:11.218Z,7.00
2022-12-25T09:37:12.871Z,7.00
2022-12-25T09:38:15.954Z,7.00
2022-12-25T09:39:17.987Z,7.00
2022-12-25T09:40:21.311Z,7.20
2022-12-25T09:41:48.652Z,7.10
2022-12-25T09:42:53.807Z,7.10
2022-12-25T09:43:59.834Z,7.10
2022-12-25T09:45:11.372Z,7.10
2022-12-25T09:46:18.786Z,7.10
2022-12-25T09:47:25.099Z,7.10
2022-12-25T09:48:31.101Z,7.20
2022-12-25T09:49:42.749Z,7.10
2022-12-25T09:51:02.791Z,6.80
2022-12-25T09:52:20.792Z,6.50
2022-12-25T09:53:28.251Z,6.20
2022-12-25T09:55:05.040Z,6.30
2022-12-25T09:56:11.322Z,6.70
2022-12-25T09:57:14.538Z,6.60
2022-12-25T09:58:16.412Z,6.50
2022-12-25T09:59:26.644Z,6.50
2022-12-25T10:00:35.965Z,6.50
2022-12-25T10:02:07.785Z,6.40
2022-12-25T10:03:22.187Z,6.00
2022-12-25T10:04:50.985Z,6.00
2022-12-25T10:06:13.269Z,5.40
2022-12-25T10:07:35.997Z,5.30
2022-12-25T10:08:47.850Z,5.50
2022-12-25T10:09:59.543Z,5.80
2022-12-25T10:11:25.104Z,5.70
2022-12-25T10:12:53.492Z,5.40
2022-12-25T10:14:06.359Z,5.60
2022-12-25T10:15:26.428Z,5.40
2022-12-25T10:16:52.565Z,5.60
2022-12-25T10:18:13.165Z,5.70
2022-12-25T10:19:43.935Z,5.80
2022-12-25T10:20:57.647Z,5.50
2022-12-25T10:22:50.978Z,5.60
2022-12-25T10:24:11.121Z,5.40
2022-12-25T10:25:22.914Z,5.40
2022-12-25T10:26:26.601Z,5.70
2022-12-25T10:27:37.121Z,5.60
2022-12-25T10:28:43.389Z,5.20
2022-12-25T10:29:49.822Z,5.20
2022-12-25T10:30:53.921Z,5.10
2022-12-25T10:31:56.803Z,5.30
2022-12-25T10:32:59.505Z,5.40
2022-12-25T10:34:01.388Z,5.50
2022-12-25T10:35:03.115Z,5.20
2022-12-25T10:36:08.629Z,4.80
2022-12-25T10:37:12.338Z,4.70
2022-12-25T10:38:19.433Z,4.50
2022-12-25T10:39:24.419Z,4.30
2022-12-25T10:40:45.407Z,3.90
2022-12-25T10:42:08.919Z,4.10
2022-12-25T10:43:22.839Z,3.90
2022-12-25T10:44:25.761Z,4.00
2022-12-25T10:45:29.132Z,4.00
2022-12-25T10:46:30.970Z,4.00
2022-12-25T10:47:38.168Z,4.00
2022-12-25T10:48:48.786Z,4.00
2022-12-25T10:49:50.807Z,4.00
2022-12-25T10:50:55.446Z,4.00
2022-12-25T10:51:57.257Z,4.00
2022-12-25T10:53:05.311Z,3.60
2022-12-25T10:54:35.759Z,3.40
2022-12-25T10:55:38.084Z,3.60
2022-12-25T10:56:40.109Z,3.50
2022-12-25T10:57:49.169Z,3.60
2022-12-25T10:58:53.034Z,3.00
2022-12-25T10:59:56.595Z,2.80
2022-12-25T11:01:05.148Z,2.50
2022-12-25T11:02:29.112Z,2.60
2022-12-25T11:03:44.814Z,2.30
2022-12-25T11:04:49.559Z,1.70
2022-12-25T11:05:53.320Z,2.40
2022-12-25T11:07:19.367Z,2.50
2022-12-25T11:08:26.816Z,2.50
2022-12-25T11:09:30.829Z,2.40
2022-12-25T11:10:38.039Z,2.60
2022-12-25T11:11:43.808Z,2.50
2022-12-25T11:12:46.890Z,2.40
2022-12-25T11:13:58.700Z,2.50
2022-12-25T11:15:04.386Z,2.30
2022-12-25T11:16:14.636Z,2.90
2022-12-25T11:17:21.655Z,2.30
2022-12-25T11:18:29.511Z,2.30
2022-12-25T11:19:33.230Z,2.10
2022-12-25T11:20:37.857Z,2.10
2022-12-25T11:21:52.054Z,2.20
2022-12-25T11:22:54.276Z,1.80
2022-12-25T11:24:01.224Z,2.00
2022-12-25T11:25:22.334Z,2.10
2022-12-25T11:26:26.218Z,2.00
2022-12-25T11:27:30.018Z,2.20
2022-12-25T11:28:34.648Z,2.20
2022-12-25T11:29:55.545Z,2.20
2022-12-25T11:31:28.827Z,2.30
2022-12-25T11:32:37.355Z,1.70
2022-12-25T11:33:52.516Z,2.00
2022-12-25T11:34:55.421Z,2.10
2022-12-25T11:36:00.945Z,2.10
2022-12-25T11:37:04.105Z,1.90
2022-12-25T11:38:08.419Z,2.10
2022-12-25T11:39:32.140Z,2.00
2022-12-25T11:40:58.230Z,2.00
2022-12-25T11:42:17.067Z,1.90
2022-12-25T11:43:27.414Z,1.80
2022-12-25T11:44:41.348Z,1.90
2022-12-25T11:45:59.403Z,1.70
2022-12-25T11:47:13.257Z,1.10
2022-12-25T11:48:21.412Z,1.40
2022-12-25T11:49:24.268Z,1.40
2022-12-25T11:50:38.582Z,1.40
2022-12-25T11:51:45.678Z,1.30
2022-12-25T11:52:48.937Z,1.10
2022-12-25T11:53:59.109Z,1.00
2022-12-25T11:55:14.334Z,1.00
2022-12-25T11:56:24.256Z,1.00
2022-12-25T11:57:29.645Z,1.00
2022-12-25T11:58:37.956Z,1.00
2022-12-25T12:00:04.252Z,1.50
2022-12-25T12:01:15.998Z,1.00
2022-12-25T12:02:45.184Z,1.00
2022-12-25T12:03:47.285Z,1.00
2022-12-25T12:04:56.067Z,1.00
2022-12-25T12:06:03.245Z,1.00
2022-12-25T12:07:08.805Z,1.00
2022-12-25T12:08:12.149Z,1.00
2022-12-25T12:09:55.029Z,1.00
2022-12-25T12:11:18.579Z,1.00
2022-12-25T12:12:48.329Z,1.00
2022-12-25T12:14:03.903Z,1.00
2022-12-25T12:15:27.636Z,1.00
2022-12-25T12:16:30.188Z,1.00
2022-12-25T12:17:32.417Z,1.00
2022-12-25T12:18:34.853Z,1.00
2022-12-25T12:19:36.629Z,1.00
2022-12-25T12:20:38.456Z,1.00
2022-12-25T12:21:44.300Z,1.00
2022-12-25T12:22:50.825Z,1.00
2022-12-25T12:24:17.543Z,1.00
2022-12-25T12:25:20.433Z,1.00
2022-12-25T12:26:24.874Z,1.00
2022-12-25T12:27:40.974Z,1.00
2022-12-25T12:28:48.657Z,1.00
2022-12-25T12:29:56.485Z,1.00
2022-12-25T12:31:03.523Z,1.00
2022-12-25T12:32:21.364Z,1.00
2022-12-25T12:33:24.010Z,1.00
2022-12-25T12:34:30.378Z,1.00
2022-12-25T12:35:39.740Z,1.00
2022-12-25T12:36:41.599Z,1.00
2022-12-25T12:37:47.323Z,1.00
2022-12-25T12:38:49.989Z,1.00
2022-12-25T12:39:54.271Z,1.00
2022-12-25T12:41:01.775Z,1.00
2022-12-25T12:42:16.789Z,1.00
2022-12-25T12:43:45.154Z,1.00
2022-12-25T12:44:50.164Z,1.00
2022-12-25T12:46:16.293Z,1.00
2022-12-25T12:47:38.496Z,1.00
2022-12-25T12:48:44.425Z,1.00
2022-12-25T12:49:58.449Z,1.00
2022-12-25T12:51:16.078Z,1.00
2022-12-25T12:52:36.091Z,1.00
2022-12-25T12:53:42.647Z,1.00
2022-12-25T12:55:07.419Z,1.00
2022-12-25T12:56:18.552Z,1.00
2022-12-25T12:57:26.896Z,1.00
2022-12-25T12:58:34.800Z,1.00
2022-12-25T12:59:44.334Z,1.00
2022-12-25T13:00:55.285Z,1.00
2022-12-25T13:02:21.812Z,1.00
2022-12-25T13:03:31.891Z,1.00
2022-12-25T13:04:53.339Z,1.00
2022-12-25T13:06:02.507Z,1.00
2022-12-25T13:07:32.201Z,1.00
2022-12-25T13:09:01.219Z,1.00
2022-12-25T13:10:33.824Z,1.00
2022-12-25T13:11:40.462Z,1.00
2022-12-25T13:12:42.406Z,1.00
2022-12-25T13:13:45.448Z,1.00
2022-12-25T13:14:48.681Z,1.00
2022-12-25T13:15:51.817Z,1.00
2022-12-25T13:16:54.849Z,1.00
2022-12-25T13:18:11.217Z,1.00
2022-12-25T13:19:16.589Z,1.00
2022-12-25T13:20:33.824Z,1.00
2022-12-25T13:21:36.216Z,1.00
2022-12-25T13:22:38.023Z,1.00
2022-12-25T13:23:39.680Z,1.00
2022-12-25T13:24:41.304Z,1.00
2022-12-25T13:25:43.294Z,1.00
2022-12-25T13:26:44.925Z,1.00
2022-12-25T13:27:54.518Z,1.00
2022-12-25T13:28:56.434Z,1.00
2022-12-25T13:29:59.754Z,1.00
2022-12-25T13:31:13.652Z,1.00
2022-12-25T13:32:25.629Z,1.00
2022-12-25T13:33:27.446Z,1.00
2022-12-25T13:34:40.349Z,1.00
2022-12-25T13:35:46.141Z,1.00
2022-12-25T13:36:48.686Z,1.00
2022-12-25T13:37:51.040Z,1.00
2022-12-25T13:38:55.894Z,1.00
2022-12-25T13:40:01.697Z,1.00
2022-12-25T13:41:22.122Z,1.00
2022-12-25T13:42:32.522Z,1.00
2022-12-25T13:43:34.195Z,1.00
2022-12-25T13:44:44.876Z,1.00
2022-12-25T13:45:54.861Z,1.00
2022-12-25T13:46:56.709Z,1.00
2022-12-25T13:48:09.128Z,1.00
2022-12-25T13:49:17.627Z,1.00
2022-12-25T13:50:30.033Z,1.00
2022-12-25T13:51:31.678Z,1.00
2022-12-25T13:52:35.748Z,1.00
2022-12-25T13:53:37.864Z,1.00
2022-12-25T13:54:40.370Z,1.00
2022-12-25T13:55:52.376Z,1.00
2022-12-25T13:56:55.355Z,1.00
2022-12-25T13:57:59.745Z,1.00
2022-12-25T13:59:01.919Z,1.00
2022-12-25T14:00:06.788Z,1.00
2022-12-25T14:01:11.608Z,1.00
2022-12-25T14:02:20.551Z,1.00
2022-12-25T14:03:34.939Z,1.00
2022-12-25T14:04:44.838Z,1.00
2022-12-25T14:05:57.135Z,1.00
2022-12-25T14:07:09.748Z,1.00
2022-12-25T14:08:21.994Z,1.00
2022-12-25T14:09:23.870Z,1.00
2022-12-25T14:10:29.249Z,1.00
2022-12-25T14:11:32.513Z,1.00
2022-12-25T14:12:37.805Z,1.00
2022-12-25T14:13:42.999Z,1.00
2022-12-25T14:14:44.852Z,1.00
2022-12-25T14:15:48.015Z,1.00
2022-12-25T14:16:51.429Z,1.00
2022-12-25T14:17:53.402Z,1.00
2022-12-25T14:18:58.411Z,1.00
2022-12-25T14:20:07.453Z,1.00
2022-12-25T14:21:22.270Z,1.00
2022-12-25T14:22:24.863Z,1.00
2022-12-25T14:23:28.071Z,1.00
2022-12-25T14:24:31.295Z,1.00
2022-12-25T14:25:42.922Z,1.00
2022-12-25T14:26:44.763Z,1.00
2022-12-25T14:27:52.006Z,1.00
2022-12-25T14:29:01.646Z,1.00
2022-12-25T14:30:03.550Z,1.00
2022-12-25T14:31:05.439Z,1.00
2022-12-25T14:32:12.903Z,1.00
2022-12-25T14:33:20.785Z,1.00
2022-12-25T14:34:25.040Z,1.00
2022-12-25T14:35:27.104Z,1.00
2022-12-25T14:36:30.798Z,1.00
2022-12-25T14:37:34.452Z,1.00
2022-12-25T14:38:40.532Z,1.00
2022-12-25T14:39:47.567Z,1.00
2022-12-25T14:40:59.619Z,1.00
2022-12-25T14:42:20.809Z,1.00
2022-12-25T14:43:25.735Z,1.00
2022-12-25T14:44:39.495Z,1.00
2022-12-25T14:45:41.319Z,1.00
2022-12-25T14:46:43.186Z,1.00
2022-12-25T14:47:53.238Z,1.00
2022-12-25T14:49:07.146Z,1.00
2022-12-25T14:50:24.500Z,1.00
2022-12-25T14:51:26.671Z,1.00
2022-12-25T14:52:39.627Z,1.00
2022-12-25T14:53:48.553Z,1.00
2022-12-25T14:55:01.530Z,1.00
2022-12-25T14:58:26.834Z,1.00
2022-12-25T14:59:28.641Z,1.00
2022-12-25T15:00:37.714Z,1.00
2022-12-25T15:01:41.283Z,1.00
2022-12-25T15:02:46.206Z,1.00
2022-12-25T15:03:49.164Z,1.00
2022-12-25T15:04:51.059Z,1.00
2022-12-25T15:06:01.586Z,1.00
2022-12-25T15:07:10.102Z,1.00
2022-12-25T15:08:11.916Z,1.00
2022-12-25T15:09:15.623Z,1.00
2022-12-25T15:10:58.370Z,1.00
2022-12-25T15:11:39.076Z,1.00
2022-12-25T15:12:40.665Z,1.00
2022-12-25T15:13:42.269Z,1.00
2022-12-25T15:14:43.842Z,1.00
2022-12-25T15:16:14.284Z,1.00
2022-12-25T15:17:26.574Z,1.00
2022-12-25T15:18:34.368Z,1.00